首页
METAR-TAF:

METAR-TAF

机场 :

克尔曼沙赫, 伊朗

纬度: 34-16N, 经度: 047-07E, 海拔: 1320米

当前天气观测

该预报发布于50分钟前的09:00 UTC
风速14节,风向南转西南
温度 19°C
湿度 28%
气压 1015 hPa
能见度10公里或以上
散云层高于4000英尺

METAR: OICC 020900Z 21014KT 9999 SCT040 19/00 Q1014 A2996

时间: 14:20 (09:50 UTC)


TAF: 丢失

超过4000个机场的气象观测和天气预报(METAR&TAF报告)。

可查询的气象台以黄色和红色小点在地图上表示。

将鼠标移到小点上方,可查看气象台名称。

然后点击查看天气观测和预报。

如需切换地图:点击带黑十字的绿色按钮放大地图;点击带横线的绿色按钮缩小地图;或者点击绿色箭头查看邻近地区的地图。


METAR-TAF: